sensor_id;sensor_type;location;lat;lon;timestamp;pressure;altitude;pressure_sealevel;temperature;humidity
17855;BME280;9053;53.358;6.382;2023-03-22T00:02:11;100665.63;;;10.81;100.00
17855;BME280;9053;53.358;6.382;2023-03-22T00:04:43;100672.63;;;10.81;100.00
17855;BME280;9053;53.358;6.382;2023-03-22T00:07:13;100662.94;;;10.80;100.00
17855;BME280;9053;53.358;6.382;2023-03-22T00:09:43;100667.38;;;10.81;100.00
17855;BME280;9053;53.358;6.382;2023-03-22T00:12:13;100669.94;;;10.79;100.00
17855;BME280;9053;53.358;6.382;2023-03-22T00:14:44;100665.56;;;10.80;100.00
17855;BME280;9053;53.358;6.382;2023-03-22T00:17:17;100655.03;;;10.80;100.00
17855;BME280;9053;53.358;6.382;2023-03-22T00:19:48;100654.16;;;10.79;100.00
17855;BME280;9053;53.358;6.382;2023-03-22T00:22:20;100661.09;;;10.77;100.00
17855;BME280;9053;53.358;6.382;2023-03-22T00:24:50;100649.69;;;10.77;100.00
17855;BME280;9053;53.358;6.382;2023-03-22T00:27:20;100642.75;;;10.79;100.00
17855;BME280;9053;53.358;6.382;2023-03-22T00:29:51;100643.56;;;10.78;100.00
17855;BME280;9053;53.358;6.382;2023-03-22T00:32:24;100639.19;;;10.77;100.00
17855;BME280;9053;53.358;6.382;2023-03-22T00:34:55;100636.47;;;10.75;100.00
17855;BME280;9053;53.358;6.382;2023-03-22T00:37:25;100631.22;;;10.75;100.00
17855;BME280;9053;53.358;6.382;2023-03-22T00:39:59;100638.16;;;10.73;100.00
17855;BME280;9053;53.358;6.382;2023-03-22T00:42:30;100633.81;;;10.74;100.00
17855;BME280;9053;53.358;6.382;2023-03-22T00:45:03;100632.91;;;10.73;100.00
17855;BME280;9053;53.358;6.382;2023-03-22T00:47:36;100631.09;;;10.71;100.00
17855;BME280;9053;53.358;6.382;2023-03-22T00:50:07;100624.91;;;10.69;100.00
17855;BME280;9053;53.358;6.382;2023-03-22T00:52:37;100625.78;;;10.69;100.00
17855;BME280;9053;53.358;6.382;2023-03-22T00:55:07;100620.53;;;10.69;100.00
17855;BME280;9053;53.358;6.382;2023-03-22T00:57:36;100625.00;;;10.72;100.00
17855;BME280;9053;53.358;6.382;2023-03-22T01:00:11;100618.78;;;10.70;100.00
17855;BME280;9053;53.358;6.382;2023-03-22T01:02:47;100616.97;;;10.67;100.00
17855;BME280;9053;53.358;6.382;2023-03-22T01:05:19;100604.66;;;10.66;100.00
17855;BME280;9053;53.358;6.382;2023-03-22T01:07:49;100607.25;;;10.65;100.00
17855;BME280;9053;53.358;6.382;2023-03-22T01:10:20;100612.44;;;10.63;100.00
17855;BME280;9053;53.358;6.382;2023-03-22T01:12:50;100603.72;;;10.64;100.00
17855;BME280;9053;53.358;6.382;2023-03-22T01:15:22;100601.94;;;10.63;100.00
17855;BME280;9053;53.358;6.382;2023-03-22T01:17:55;100594.91;;;10.62;100.00
17855;BME280;9053;53.358;6.382;2023-03-22T01:20:25;100589.56;;;10.60;100.00
17855;BME280;9053;53.358;6.382;2023-03-22T01:22:55;100593.13;;;10.61;100.00
17855;BME280;9053;53.358;6.382;2023-03-22T01:25:25;100594.84;;;10.60;100.00
17855;BME280;9053;53.358;6.382;2023-03-22T01:27:55;100593.06;;;10.59;100.00
17855;BME280;9053;53.358;6.382;2023-03-22T01:30:24;100582.56;;;10.59;100.00
17855;BME280;9053;53.358;6.382;2023-03-22T01:32:57;100591.31;;;10.60;100.00
17855;BME280;9053;53.358;6.382;2023-03-22T01:35:27;100582.50;;;10.58;100.00
17855;BME280;9053;53.358;6.382;2023-03-22T01:37:58;100577.22;;;10.56;100.00
17855;BME280;9053;53.358;6.382;2023-03-22T01:40:28;100576.25;;;10.54;100.00
17855;BME280;9053;53.358;6.382;2023-03-22T01:43:00;100572.75;;;10.54;100.00
17855;BME280;9053;53.358;6.382;2023-03-22T01:45:48;100574.53;;;10.55;100.00
17855;BME280;9053;53.358;6.382;2023-03-22T01:48:24;100576.31;;;10.56;100.00
17855;BME280;9053;53.358;6.382;2023-03-22T01:51:00;100569.25;;;10.55;100.00
17855;BME280;9053;53.358;6.382;2023-03-22T01:53:34;100564.88;;;10.54;100.00
17855;BME280;9053;53.358;6.382;2023-03-22T01:56:06;100563.06;;;10.53;100.00
17855;BME280;9053;53.358;6.382;2023-03-22T01:58:37;100552.53;;;10.51;100.00
17855;BME280;9053;53.358;6.382;2023-03-22T02:01:09;100558.66;;;10.52;100.00
17855;BME280;9053;53.358;6.382;2023-03-22T02:03:46;100552.53;;;10.51;100.00
17855;BME280;9053;53.358;6.382;2023-03-22T02:06:17;100548.94;;;10.49;100.00
17855;BME280;9053;53.358;6.382;2023-03-22T02:08:48;100543.69;;;10.49;100.00
17855;BME280;9053;53.358;6.382;2023-03-22T02:11:24;100538.44;;;10.49;100.00
17855;BME280;9053;53.358;6.382;2023-03-22T02:14:13;100538.50;;;10.52;100.00
17855;BME280;9053;53.358;6.382;2023-03-22T02:16:56;100527.09;;;10.52;100.00
17855;BME280;9053;53.358;6.382;2023-03-22T02:25:55;100520.09;;;10.52;100.00
17855;BME280;9053;53.358;6.382;2023-03-22T02:28:41;100528.00;;;10.52;100.00
17855;BME280;9053;53.358;6.382;2023-03-22T02:34:55;100524.56;;;10.55;100.00
17855;BME280;9053;53.358;6.382;2023-03-22T02:41:07;100506.16;;;10.55;100.00
17855;BME280;9053;53.358;6.382;2023-03-22T02:43:50;100506.16;;;10.55;100.00
17855;BME280;9053;53.358;6.382;2023-03-22T02:46:28;100510.53;;;10.54;100.00
17855;BME280;9053;53.358;6.382;2023-03-22T03:05:48;100507.97;;;10.56;100.00
17855;BME280;9053;53.358;6.382;2023-03-22T03:08:21;100508.88;;;10.58;100.00
17855;BME280;9053;53.358;6.382;2023-03-22T03:10:53;100507.97;;;10.57;100.00
17855;BME280;9053;53.358;6.382;2023-03-22T03:13:23;100505.44;;;10.60;100.00
17855;BME280;9053;53.358;6.382;2023-03-22T03:15:56;100504.53;;;10.60;100.00
17855;BME280;9053;53.358;6.382;2023-03-22T03:18:37;100503.72;;;10.61;100.00
17855;BME280;9053;53.358;6.382;2023-03-22T03:21:23;100499.38;;;10.63;100.00
17855;BME280;9053;53.358;6.382;2023-03-22T03:24:13;100488.03;;;10.64;100.00
17855;BME280;9053;53.358;6.382;2023-03-22T03:26:55;100486.31;;;10.66;100.00
17855;BME280;9053;53.358;6.382;2023-03-22T03:29:33;100481.09;;;10.68;100.00
17855;BME280;9053;53.358;6.382;2023-03-22T03:32:06;100474.94;;;10.67;100.00
17855;BME280;9053;53.358;6.382;2023-03-22T03:34:42;100473.25;;;10.69;100.00
17855;BME280;9053;53.358;6.382;2023-03-22T03:37:27;100470.66;;;10.71;100.00
17855;BME280;9053;53.358;6.382;2023-03-22T03:40:04;100466.31;;;10.71;100.00
17855;BME280;9053;53.358;6.382;2023-03-22T03:42:37;100464.50;;;10.70;100.00
17855;BME280;9053;53.358;6.382;2023-03-22T03:45:09;100468.13;;;10.74;100.00
17855;BME280;9053;53.358;6.382;2023-03-22T05:50:55;100332.88;;;10.64;100.00
17855;BME280;9053;53.358;6.382;2023-03-22T05:53:50;100339.88;;;10.65;100.00
17855;BME280;9053;53.358;6.382;2023-03-22T05:56:45;100341.63;;;10.65;100.00
17855;BME280;9053;53.358;6.382;2023-03-22T06:02:58;100332.88;;;10.64;100.00
17855;BME280;9053;53.358;6.382;2023-03-22T06:06:11;100337.31;;;10.68;100.00
17855;BME280;9053;53.358;6.382;2023-03-22T06:12:46;100335.56;;;10.67;100.00
17855;BME280;9053;53.358;6.382;2023-03-22T07:45:46;100290.44;;;11.24;100.00
17855;BME280;9053;53.358;6.382;2023-03-22T07:55:06;100262.66;;;11.37;100.00
17855;BME280;9053;53.358;6.382;2023-03-22T07:57:40;100258.38;;;11.42;100.00
17855;BME280;9053;53.358;6.382;2023-03-22T08:00:15;100262.88;;;11.48;100.00
17855;BME280;9053;53.358;6.382;2023-03-22T08:03:38;100270.03;;;11.55;100.00
17855;BME280;9053;53.358;6.382;2023-03-22T08:06:10;100285.94;;;11.60;100.00
17855;BME280;9053;53.358;6.382;2023-03-22T08:32:01;100269.53;;;12.19;100.00
17855;BME280;9053;53.358;6.382;2023-03-22T08:35:07;100249.09;;;12.07;100.00
17855;BME280;9053;53.358;6.382;2023-03-22T08:38:04;100254.28;;;12.01;100.00
17855;BME280;9053;53.358;6.382;2023-03-22T08:55:08;100250.97;;;12.63;100.00
17855;BME280;9053;53.358;6.382;2023-03-22T08:57:51;100264.91;;;12.55;100.00
17855;BME280;9053;53.358;6.382;2023-03-22T09:00:58;100252.50;;;12.50;100.00
17855;BME280;9053;53.358;6.382;2023-03-22T09:03:50;100259.44;;;12.43;100.00
17855;BME280;9053;53.358;6.382;2023-03-22T09:07:06;100271.56;;;12.33;100.00
17855;BME280;9053;53.358;6.382;2023-03-22T09:36:27;100264.19;;;12.14;100.00
17855;BME280;9053;53.358;6.382;2023-03-22T09:38:58;100253.53;;;12.09;100.00
17855;BME280;9053;53.358;6.382;2023-03-22T09:41:38;100253.44;;;12.03;100.00
17855;BME280;9053;53.358;6.382;2023-03-22T09:44:12;100254.19;;;11.96;100.00
17855;BME280;9053;53.358;6.382;2023-03-22T09:47:01;100254.03;;;11.88;100.00
17855;BME280;9053;53.358;6.382;2023-03-22T09:49:35;100272.41;;;11.85;100.00
17855;BME280;9053;53.358;6.382;2023-03-22T09:52:28;100259.13;;;11.79;100.00
17855;BME280;9053;53.358;6.382;2023-03-22T09:55:51;100252.84;;;11.74;100.00
17855;BME280;9053;53.358;6.382;2023-03-22T09:59:05;100252.69;;;11.66;100.00
17855;BME280;9053;53.358;6.382;2023-03-22T10:08:13;100248.84;;;11.49;100.00
17855;BME280;9053;53.358;6.382;2023-03-22T10:21:01;100256.50;;;11.38;100.00
17855;BME280;9053;53.358;6.382;2023-03-22T10:23:44;100260.84;;;11.35;100.00
17855;BME280;9053;53.358;6.382;2023-03-22T10:26:50;100271.31;;;11.32;100.00
17855;BME280;9053;53.358;6.382;2023-03-22T10:29:36;100255.50;;;11.32;100.00
17855;BME280;9053;53.358;6.382;2023-03-22T10:32:57;100255.47;;;11.30;100.00
17855;BME280;9053;53.358;6.382;2023-03-22T10:39:49;100272.03;;;11.24;100.00
17855;BME280;9053;53.358;6.382;2023-03-22T10:42:23;100266.66;;;11.20;100.00
17855;BME280;9053;53.358;6.382;2023-03-22T10:45:08;100263.97;;;11.17;100.00
17855;BME280;9053;53.358;6.382;2023-03-22T11:14:11;100268.59;;;11.29;100.00
17855;BME280;9053;53.358;6.382;2023-03-22T11:20:55;100273.06;;;11.33;100.00
17855;BME280;9053;53.358;6.382;2023-03-22T11:23:31;100266.06;;;11.33;100.00
17855;BME280;9053;53.358;6.382;2023-03-22T11:26:06;100247.66;;;11.35;100.00
17855;BME280;9053;53.358;6.382;2023-03-22T11:28:41;100253.91;;;11.40;100.00
17855;BME280;9053;53.358;6.382;2023-03-22T11:31:19;100257.47;;;11.42;100.00
17855;BME280;9053;53.358;6.382;2023-03-22T11:34:00;100255.78;;;11.45;100.00
17855;BME280;9053;53.358;6.382;2023-03-22T11:36:42;100267.19;;;11.46;100.00
17855;BME280;9053;53.358;6.382;2023-03-22T11:39:38;100259.28;;;11.44;100.00
17855;BME280;9053;53.358;6.382;2023-03-22T11:42:20;100263.72;;;11.47;100.00
17855;BME280;9053;53.358;6.382;2023-03-22T11:44:51;100255.84;;;11.48;100.00
17855;BME280;9053;53.358;6.382;2023-03-22T11:47:33;100251.50;;;11.51;100.00
17855;BME280;9053;53.358;6.382;2023-03-22T11:50:23;100262.91;;;11.51;100.00
17855;BME280;9053;53.358;6.382;2023-03-22T11:52:56;100258.56;;;11.52;100.00
17855;BME280;9053;53.358;6.382;2023-03-22T11:55:30;100259.41;;;11.49;100.00
17855;BME280;9053;53.358;6.382;2023-03-22T11:58:01;100267.28;;;11.49;100.00
17855;BME280;9053;53.358;6.382;2023-03-22T12:00:36;100280.50;;;11.52;100.00
17855;BME280;9053;53.358;6.382;2023-03-22T12:03:15;100289.34;;;11.54;100.00
17855;BME280;9053;53.358;6.382;2023-03-22T12:05:52;100285.78;;;11.52;100.00
17855;BME280;9053;53.358;6.382;2023-03-22T12:08:26;100292.81;;;11.53;100.00
17855;BME280;9053;53.358;6.382;2023-03-22T12:11:01;100303.34;;;11.53;100.00
17855;BME280;9053;53.358;6.382;2023-03-22T12:13:38;100308.63;;;11.53;100.00
17855;BME280;9053;53.358;6.382;2023-03-22T12:16:14;100305.06;;;11.51;100.00
17855;BME280;9053;53.358;6.382;2023-03-22T12:19:02;100289.25;;;11.51;100.00
17855;BME280;9053;53.358;6.382;2023-03-22T12:21:33;100295.38;;;11.50;100.00
17855;BME280;9053;53.358;6.382;2023-03-22T12:24:12;100291.03;;;11.52;100.00
17855;BME280;9053;53.358;6.382;2023-03-22T12:26:47;100286.63;;;11.51;100.00
17855;BME280;9053;53.358;6.382;2023-03-22T12:29:20;100300.69;;;11.52;100.00
17855;BME280;9053;53.358;6.382;2023-03-22T12:31:57;100293.69;;;11.52;100.00
17855;BME280;9053;53.358;6.382;2023-03-22T12:34:37;100297.13;;;11.50;100.00
17855;BME280;9053;53.358;6.382;2023-03-22T12:37:13;100295.38;;;11.50;100.00
17855;BME280;9053;53.358;6.382;2023-03-22T12:39:47;100303.28;;;11.50;100.00
17855;BME280;9053;53.358;6.382;2023-03-22T12:42:21;100283.09;;;11.49;100.00
17855;BME280;9053;53.358;6.382;2023-03-22T12:44:58;100289.19;;;11.48;100.00
17855;BME280;9053;53.358;6.382;2023-03-22T12:47:35;100291.00;;;11.49;100.00
17855;BME280;9053;53.358;6.382;2023-03-22T12:50:15;100280.41;;;11.47;100.00
17855;BME280;9053;53.358;6.382;2023-03-22T12:52:48;100286.56;;;11.48;100.00
17855;BME280;9053;53.358;6.382;2023-03-22T12:55:36;100286.59;;;11.50;100.00
17855;BME280;9053;53.358;6.382;2023-03-22T12:58:12;100289.19;;;11.48;100.00
17855;BME280;9053;53.358;6.382;2023-03-22T13:00:46;100283.03;;;11.47;100.00
17855;BME280;9053;53.358;6.382;2023-03-22T13:03:23;100292.69;;;11.47;100.00
17855;BME280;9053;53.358;6.382;2023-03-22T13:06:26;100290.06;;;11.47;100.00
17855;BME280;9053;53.358;6.382;2023-03-22T13:09:09;100297.09;;;11.46;100.00
17855;BME280;9053;53.358;6.382;2023-03-22T13:11:43;100296.16;;;11.46;100.00
17855;BME280;9053;53.358;6.382;2023-03-22T13:32:26;100297.72;;;11.77;100.00
17855;BME280;9053;53.358;6.382;2023-03-22T13:34:59;100280.81;;;11.67;100.00
17855;BME280;9053;53.358;6.382;2023-03-22T13:37:51;100294.66;;;11.57;100.00
17855;BME280;9053;53.358;6.382;2023-03-22T13:40:32;100299.81;;;11.53;100.00
17855;BME280;9053;53.358;6.382;2023-03-22T13:43:47;100292.69;;;11.47;100.00
17855;BME280;9053;53.358;6.382;2023-03-22T13:47:00;100291.72;;;11.43;100.00
17855;BME280;9053;53.358;6.382;2023-03-22T13:49:46;100293.44;;;11.41;100.00
17855;BME280;9053;53.358;6.382;2023-03-22T13:52:52;100295.19;;;11.41;100.00
17855;BME280;9053;53.358;6.382;2023-03-22T13:55:58;100299.56;;;11.40;100.00
17855;BME280;9053;53.358;6.382;2023-03-22T13:58:33;100293.31;;;11.35;100.00
17855;BME280;9053;53.358;6.382;2023-03-22T14:01:11;100293.25;;;11.32;100.00
17855;BME280;9053;53.358;6.382;2023-03-22T14:03:44;100286.19;;;11.31;100.00
17855;BME280;9053;53.358;6.382;2023-03-22T14:06:23;100279.16;;;11.30;100.00
17855;BME280;9053;53.358;6.382;2023-03-22T14:08:57;100280.91;;;11.30;100.00
17855;BME280;9053;53.358;6.382;2023-03-22T14:11:36;100279.13;;;11.29;100.00
17855;BME280;9053;53.358;6.382;2023-03-22T14:14:11;100294.06;;;11.30;100.00
17855;BME280;9053;53.358;6.382;2023-03-22T14:16:44;100286.13;;;11.26;100.00
17855;BME280;9053;53.358;6.382;2023-03-22T14:19:18;100284.38;;;11.29;100.00
17855;BME280;9053;53.358;6.382;2023-03-22T14:21:53;100284.44;;;11.30;100.00
17855;BME280;9053;53.358;6.382;2023-03-22T14:24:24;100285.34;;;11.32;100.00
17855;BME280;9053;53.358;6.382;2023-03-22T14:26:58;100283.66;;;11.34;100.00
17855;BME280;9053;53.358;6.382;2023-03-22T14:29:38;100271.44;;;11.38;100.00
17855;BME280;9053;53.358;6.382;2023-03-22T14:32:14;100278.44;;;11.39;100.00
17855;BME280;9053;53.358;6.382;2023-03-22T14:34:46;100276.75;;;11.41;100.00
17855;BME280;9053;53.358;6.382;2023-03-22T14:37:19;100271.53;;;11.44;100.00
17855;BME280;9053;53.358;6.382;2023-03-22T14:39:52;100268.91;;;11.44;100.00
17855;BME280;9053;53.358;6.382;2023-03-22T14:42:26;100270.75;;;11.46;100.00
17855;BME280;9053;53.358;6.382;2023-03-22T14:44:58;100262.03;;;11.49;100.00
17855;BME280;9053;53.358;6.382;2023-03-22T14:47:29;100261.16;;;11.50;100.00
17855;BME280;9053;53.358;6.382;2023-03-22T14:50:05;100258.53;;;11.50;100.00
17855;BME280;9053;53.358;6.382;2023-03-22T14:52:38;100271.72;;;11.52;100.00
17855;BME280;9053;53.358;6.382;2023-03-22T14:55:16;100259.44;;;11.52;100.00
17855;BME280;9053;53.358;6.382;2023-03-22T14:57:55;100253.34;;;11.55;100.00
17855;BME280;9053;53.358;6.382;2023-03-22T15:00:26;100260.38;;;11.54;100.00
17855;BME280;9053;53.358;6.382;2023-03-22T15:02:58;100253.34;;;11.55;100.00
17855;BME280;9053;53.358;6.382;2023-03-22T15:05:33;100250.69;;;11.53;100.00
17855;BME280;9053;53.358;6.382;2023-03-22T15:08:11;100255.13;;;11.56;100.00
17855;BME280;9053;53.358;6.382;2023-03-22T15:10:42;100243.69;;;11.55;100.00
17855;BME280;9053;53.358;6.382;2023-03-22T15:13:15;100248.97;;;11.55;100.00
17855;BME280;9053;53.358;6.382;2023-03-22T15:15:47;100238.44;;;11.55;100.00
17855;BME280;9053;53.358;6.382;2023-03-22T15:18:19;100249.03;;;11.58;100.00
17855;BME280;9053;53.358;6.382;2023-03-22T15:20:52;100240.28;;;11.59;100.00
17855;BME280;9053;53.358;6.382;2023-03-22T15:23:33;100240.28;;;11.59;100.00
17855;BME280;9053;53.358;6.382;2023-03-22T15:26:06;100247.31;;;11.60;100.00
17855;BME280;9053;53.358;6.382;2023-03-22T15:28:45;100241.22;;;11.63;100.00
17855;BME280;9053;53.358;6.382;2023-03-22T15:31:21;100244.75;;;11.63;100.00
17855;BME280;9053;53.358;6.382;2023-03-22T15:33:56;100240.41;;;11.65;100.00
17855;BME280;9053;53.358;6.382;2023-03-22T15:36:28;100239.50;;;11.65;100.00
17855;BME280;9053;53.358;6.382;2023-03-22T15:39:16;100238.63;;;11.64;100.00
17855;BME280;9053;53.358;6.382;2023-03-22T15:41:50;100236.84;;;11.63;100.00
17855;BME280;9053;53.358;6.382;2023-03-22T15:44:25;100238.66;;;11.66;100.00
17855;BME280;9053;53.358;6.382;2023-03-22T15:46:58;100235.19;;;11.68;100.00
17855;BME280;9053;53.358;6.382;2023-03-22T15:49:34;100234.34;;;11.69;100.00
17855;BME280;9053;53.358;6.382;2023-03-22T15:52:13;100232.59;;;11.70;100.00
17855;BME280;9053;53.358;6.382;2023-03-22T15:54:55;100234.34;;;11.71;100.00
17855;BME280;9053;53.358;6.382;2023-03-22T15:57:37;100231.78;;;11.74;100.00
17855;BME280;9053;53.358;6.382;2023-03-22T16:00:19;100238.78;;;11.74;100.00
17855;BME280;9053;53.358;6.382;2023-03-22T16:02:56;100238.84;;;11.75;100.00
17855;BME280;9053;53.358;6.382;2023-03-22T16:05:27;100238.78;;;11.74;100.00
17855;BME280;9053;53.358;6.382;2023-03-22T16:07:58;100238.84;;;11.77;100.00
17855;BME280;9053;53.358;6.382;2023-03-22T16:10:32;100236.22;;;11.77;100.00
17855;BME280;9053;53.358;6.382;2023-03-22T16:13:08;100237.97;;;11.76;100.00
17855;BME280;9053;53.358;6.382;2023-03-22T16:15:38;100229.19;;;11.76;100.00
17855;BME280;9053;53.358;6.382;2023-03-22T16:18:11;100230.09;;;11.78;100.00
17855;BME280;9053;53.358;6.382;2023-03-22T16:20:44;100215.13;;;11.75;100.00
17855;BME280;9053;53.358;6.382;2023-03-22T16:23:16;100204.59;;;11.75;100.00
17855;BME280;9053;53.358;6.382;2023-03-22T16:25:50;100205.47;;;11.76;100.00
17855;BME280;9053;53.358;6.382;2023-03-22T16:28:21;100219.50;;;11.75;100.00
17855;BME280;9053;53.358;6.382;2023-03-22T16:30:51;100222.09;;;11.73;100.00
17855;BME280;9053;53.358;6.382;2023-03-22T16:33:21;100218.59;;;11.73;100.00
17855;BME280;9053;53.358;6.382;2023-03-22T16:35:51;100218.59;;;11.74;100.00
17855;BME280;9053;53.358;6.382;2023-03-22T16:38:21;100215.13;;;11.75;100.00
17855;BME280;9053;53.358;6.382;2023-03-22T16:40:56;100220.41;;;11.75;100.00
17855;BME280;9053;53.358;6.382;2023-03-22T16:43:26;100217.78;;;11.77;100.00
17855;BME280;9053;53.358;6.382;2023-03-22T16:45:57;100202.88;;;11.77;100.00
17855;BME280;9053;53.358;6.382;2023-03-22T16:48:28;100202.88;;;11.77;100.00
17855;BME280;9053;53.358;6.382;2023-03-22T16:50:59;100208.16;;;11.77;100.00
17855;BME280;9053;53.358;6.382;2023-03-22T16:53:29;100201.97;;;11.77;100.00
17855;BME280;9053;53.358;6.382;2023-03-22T16:56:14;100209.88;;;11.77;100.00
17855;BME280;9053;53.358;6.382;2023-03-22T16:58:48;100217.75;;;11.75;100.00
17855;BME280;9053;53.358;6.382;2023-03-22T17:01:19;100214.25;;;11.76;100.00
17855;BME280;9053;53.358;6.382;2023-03-22T17:03:50;100201.91;;;11.74;100.00
17855;BME280;9053;53.358;6.382;2023-03-22T17:06:23;100210.69;;;11.74;100.00
17855;BME280;9053;53.358;6.382;2023-03-22T17:08:53;100205.44;;;11.74;100.00
17855;BME280;9053;53.358;6.382;2023-03-22T17:11:26;100198.44;;;11.75;100.00
17855;BME280;9053;53.358;6.382;2023-03-22T17:13:56;100195.75;;;11.73;100.00
17855;BME280;9053;53.358;6.382;2023-03-22T17:16:26;100201.00;;;11.72;100.00
17855;BME280;9053;53.358;6.382;2023-03-22T17:18:58;100204.53;;;11.74;100.00
17855;BME280;9053;53.358;6.382;2023-03-22T17:21:28;100208.97;;;11.75;100.00
17855;BME280;9053;53.358;6.382;2023-03-22T17:23:58;100210.78;;;11.77;100.00
17855;BME280;9053;53.358;6.382;2023-03-22T17:26:32;100200.25;;;11.79;100.00
17855;BME280;9053;53.358;6.382;2023-03-22T17:29:03;100195.84;;;11.78;100.00
17855;BME280;9053;53.358;6.382;2023-03-22T17:31:34;100198.50;;;11.78;100.00
17855;BME280;9053;53.358;6.382;2023-03-22T17:34:05;100201.13;;;11.78;100.00
17855;BME280;9053;53.358;6.382;2023-03-22T17:36:39;100209.84;;;11.75;100.00
17855;BME280;9053;53.358;6.382;2023-03-22T17:39:09;100208.97;;;11.75;100.00
17855;BME280;9053;53.358;6.382;2023-03-22T17:42:02;100209.81;;;11.74;100.00
17855;BME280;9053;53.358;6.382;2023-03-22T17:44:33;100214.25;;;11.75;100.00
17855;BME280;9053;53.358;6.382;2023-03-22T17:47:03;100208.97;;;11.75;100.00
17855;BME280;9053;53.358;6.382;2023-03-22T17:49:53;100228.31;;;11.77;100.00
17855;BME280;9053;53.358;6.382;2023-03-22T17:52:23;100221.31;;;11.77;100.00
17855;BME280;9053;53.358;6.382;2023-03-22T17:54:54;100230.09;;;11.78;100.00
17855;BME280;9053;53.358;6.382;2023-03-22T17:57:46;100228.31;;;11.77;100.00
17855;BME280;9053;53.358;6.382;2023-03-22T18:00:39;100235.38;;;11.78;100.00
17855;BME280;9053;53.358;6.382;2023-03-22T18:03:11;100237.06;;;11.76;100.00
17855;BME280;9053;53.358;6.382;2023-03-22T18:12:27;100236.16;;;11.74;100.00
17855;BME280;9053;53.358;6.382;2023-03-22T18:15:00;100228.28;;;11.75;100.00
17855;BME280;9053;53.358;6.382;2023-03-22T18:17:30;100222.16;;;11.75;100.00
17855;BME280;9053;53.358;6.382;2023-03-22T18:20:00;100217.78;;;11.77;100.00
17855;BME280;9053;53.358;6.382;2023-03-22T18:22:50;100227.41;;;11.76;100.00
17855;BME280;9053;53.358;6.382;2023-03-22T18:25:22;100226.59;;;11.77;100.00
17855;BME280;9053;53.358;6.382;2023-03-22T18:28:05;100221.31;;;11.77;100.00
17855;BME280;9053;53.358;6.382;2023-03-22T18:30:38;100215.13;;;11.77;100.00
17855;BME280;9053;53.358;6.382;2023-03-22T18:33:08;100204.59;;;11.75;100.00
17855;BME280;9053;53.358;6.382;2023-03-22T18:35:39;100212.50;;;11.77;100.00
17855;BME280;9053;53.358;6.382;2023-03-22T18:38:09;100204.59;;;11.77;100.00
17855;BME280;9053;53.358;6.382;2023-03-22T18:41:03;100210.78;;;11.77;100.00
17855;BME280;9053;53.358;6.382;2023-03-22T18:43:38;100202.00;;;11.78;100.00
17855;BME280;9053;53.358;6.382;2023-03-22T18:46:13;100206.44;;;11.79;100.00
17855;BME280;9053;53.358;6.382;2023-03-22T18:48:45;100202.94;;;11.80;100.00
17855;BME280;9053;53.358;6.382;2023-03-22T18:51:15;100196.78;;;11.80;100.00
17855;BME280;9053;53.358;6.382;2023-03-22T18:53:47;100202.06;;;11.81;100.00
17855;BME280;9053;53.358;6.382;2023-03-22T18:56:18;100185.41;;;11.82;100.00
17855;BME280;9053;53.358;6.382;2023-03-22T18:58:48;100187.16;;;11.82;100.00
17855;BME280;9053;53.358;6.382;2023-03-22T19:01:21;100181.91;;;11.82;100.00
17855;BME280;9053;53.358;6.382;2023-03-22T19:03:53;100175.72;;;11.81;100.00
17855;BME280;9053;53.358;6.382;2023-03-22T19:06:24;100164.34;;;11.82;100.00
17855;BME280;9053;53.358;6.382;2023-03-22T19:08:55;100153.81;;;11.84;100.00
17855;BME280;9053;53.358;6.382;2023-03-22T19:11:25;100163.47;;;11.83;100.00
17855;BME280;9053;53.358;6.382;2023-03-22T19:13:54;100170.47;;;11.83;100.00
17855;BME280;9053;53.358;6.382;2023-03-22T19:16:48;100174.00;;;11.83;100.00
17855;BME280;9053;53.358;6.382;2023-03-22T19:19:18;100191.59;;;11.86;100.00
17855;BME280;9053;53.358;6.382;2023-03-22T19:21:48;100188.97;;;11.86;100.00
17855;BME280;9053;53.358;6.382;2023-03-22T19:24:18;100180.28;;;11.88;100.00
17855;BME280;9053;53.358;6.382;2023-03-22T19:26:48;100179.44;;;11.89;100.00
17855;BME280;9053;53.358;6.382;2023-03-22T19:29:38;100180.28;;;11.88;100.00
17855;BME280;9053;53.358;6.382;2023-03-22T19:32:11;100185.53;;;11.88;100.00
17855;BME280;9053;53.358;6.382;2023-03-22T19:34:42;100167.97;;;11.89;100.00
17855;BME280;9053;53.358;6.382;2023-03-22T19:37:17;100182.06;;;11.89;100.00
17855;BME280;9053;53.358;6.382;2023-03-22T19:39:47;100177.66;;;11.90;100.00
17855;BME280;9053;53.358;6.382;2023-03-22T19:42:37;100182.06;;;11.89;100.00
17855;BME280;9053;53.358;6.382;2023-03-22T19:45:09;100167.13;;;11.90;100.00
17855;BME280;9053;53.358;6.382;2023-03-22T19:47:42;100170.59;;;11.89;100.00
17855;BME280;9053;53.358;6.382;2023-03-22T19:50:29;100158.34;;;11.89;100.00
17855;BME280;9053;53.358;6.382;2023-03-22T19:53:02;100154.84;;;11.90;100.00
17855;BME280;9053;53.358;6.382;2023-03-22T19:55:52;100140.78;;;11.90;100.00
17855;BME280;9053;53.358;6.382;2023-03-22T19:58:22;100138.16;;;11.91;100.00
17855;BME280;9053;53.358;6.382;2023-03-22T20:00:53;100124.13;;;11.93;100.00
17855;BME280;9053;53.358;6.382;2023-03-22T20:03:27;100116.25;;;11.94;100.00
17855;BME280;9053;53.358;6.382;2023-03-22T20:06:01;100112.75;;;11.95;100.00
17855;BME280;9053;53.358;6.382;2023-03-22T20:08:35;100113.66;;;11.96;100.00
17855;BME280;9053;53.358;6.382;2023-03-22T20:11:08;100111.88;;;11.95;100.00
17855;BME280;9053;53.358;6.382;2023-03-22T20:13:55;100109.25;;;11.95;100.00
17855;BME280;9053;53.358;6.382;2023-03-22T20:16:25;100109.25;;;11.96;100.00
17855;BME280;9053;53.358;6.382;2023-03-22T20:18:58;100118.03;;;11.95;100.00
17855;BME280;9053;53.358;6.382;2023-03-22T20:21:28;100116.31;;;11.97;100.00